sensor_id;sensor_type;location;lat;lon;timestamp;temperature;humidity
21033;DHT22;10675;47.976;7.824;2022-07-01T00:00:14;15.60;99.90
21033;DHT22;10675;47.976;7.824;2022-07-01T00:02:40;15.60;99.90
21033;DHT22;10675;47.976;7.824;2022-07-01T00:05:05;15.50;99.90
21033;DHT22;10675;47.976;7.824;2022-07-01T00:07:31;15.50;99.90
21033;DHT22;10675;47.976;7.824;2022-07-01T00:09:56;15.50;99.90
21033;DHT22;10675;47.976;7.824;2022-07-01T00:12:22;15.60;99.90
21033;DHT22;10675;47.976;7.824;2022-07-01T00:14:47;15.70;99.90
21033;DHT22;10675;47.976;7.824;2022-07-01T00:17:13;15.70;99.90
21033;DHT22;10675;47.976;7.824;2022-07-01T00:19:39;15.70;99.90
21033;DHT22;10675;47.976;7.824;2022-07-01T00:22:04;15.70;99.90
21033;DHT22;10675;47.976;7.824;2022-07-01T00:24:30;15.70;99.90
21033;DHT22;10675;47.976;7.824;2022-07-01T00:26:55;15.60;99.90
21033;DHT22;10675;47.976;7.824;2022-07-01T00:29:21;15.60;99.90
21033;DHT22;10675;47.976;7.824;2022-07-01T00:31:46;15.60;99.90
21033;DHT22;10675;47.976;7.824;2022-07-01T00:34:12;15.70;99.90
21033;DHT22;10675;47.976;7.824;2022-07-01T00:36:37;15.70;99.90
21033;DHT22;10675;47.976;7.824;2022-07-01T00:39:03;15.60;99.90
21033;DHT22;10675;47.976;7.824;2022-07-01T00:41:29;15.60;99.90
21033;DHT22;10675;47.976;7.824;2022-07-01T00:43:54;15.60;99.90
21033;DHT22;10675;47.976;7.824;2022-07-01T00:46:20;15.60;99.90
21033;DHT22;10675;47.976;7.824;2022-07-01T00:48:46;15.50;99.90
21033;DHT22;10675;47.976;7.824;2022-07-01T00:51:12;15.40;99.90
21033;DHT22;10675;47.976;7.824;2022-07-01T00:53:37;15.40;99.90
21033;DHT22;10675;47.976;7.824;2022-07-01T00:56:03;15.60;99.90
21033;DHT22;10675;47.976;7.824;2022-07-01T00:58:29;15.60;99.90
21033;DHT22;10675;47.976;7.824;2022-07-01T01:00:56;15.60;99.90
21033;DHT22;10675;47.976;7.824;2022-07-01T01:03:22;15.50;99.90
21033;DHT22;10675;47.976;7.824;2022-07-01T01:05:48;15.50;99.90
21033;DHT22;10675;47.976;7.824;2022-07-01T01:08:14;15.50;99.90
21033;DHT22;10675;47.976;7.824;2022-07-01T01:10:41;15.40;99.90
21033;DHT22;10675;47.976;7.824;2022-07-01T01:13:08;15.40;99.90
21033;DHT22;10675;47.976;7.824;2022-07-01T01:15:34;15.40;99.90
21033;DHT22;10675;47.976;7.824;2022-07-01T01:17:59;15.40;99.90
21033;DHT22;10675;47.976;7.824;2022-07-01T01:20:25;15.50;99.90
21033;DHT22;10675;47.976;7.824;2022-07-01T01:22:50;15.40;99.90
21033;DHT22;10675;47.976;7.824;2022-07-01T01:25:16;15.40;99.90
21033;DHT22;10675;47.976;7.824;2022-07-01T01:27:43;15.40;99.90
21033;DHT22;10675;47.976;7.824;2022-07-01T01:30:10;15.40;99.90
21033;DHT22;10675;47.976;7.824;2022-07-01T01:32:37;15.40;99.90
21033;DHT22;10675;47.976;7.824;2022-07-01T01:35:04;15.40;99.90
21033;DHT22;10675;47.976;7.824;2022-07-01T01:37:29;15.40;99.90
21033;DHT22;10675;47.976;7.824;2022-07-01T01:39:55;15.40;99.90
21033;DHT22;10675;47.976;7.824;2022-07-01T01:42:20;15.30;99.90
21033;DHT22;10675;47.976;7.824;2022-07-01T01:44:47;15.40;99.90
21033;DHT22;10675;47.976;7.824;2022-07-01T01:47:12;15.40;99.90
21033;DHT22;10675;47.976;7.824;2022-07-01T01:49:38;15.30;99.90
21033;DHT22;10675;47.976;7.824;2022-07-01T01:52:04;15.30;99.90
21033;DHT22;10675;47.976;7.824;2022-07-01T01:54:29;15.30;99.90
21033;DHT22;10675;47.976;7.824;2022-07-01T01:56:55;15.30;99.90
21033;DHT22;10675;47.976;7.824;2022-07-01T01:59:21;15.40;99.90
21033;DHT22;10675;47.976;7.824;2022-07-01T02:01:46;15.40;99.90
21033;DHT22;10675;47.976;7.824;2022-07-01T02:04:12;15.40;99.90
21033;DHT22;10675;47.976;7.824;2022-07-01T02:06:37;15.40;99.90
21033;DHT22;10675;47.976;7.824;2022-07-01T02:09:03;15.40;99.90
21033;DHT22;10675;47.976;7.824;2022-07-01T02:11:28;15.40;99.90
21033;DHT22;10675;47.976;7.824;2022-07-01T02:13:54;15.40;99.90
21033;DHT22;10675;47.976;7.824;2022-07-01T02:16:20;15.40;99.90
21033;DHT22;10675;47.976;7.824;2022-07-01T02:18:45;15.40;99.90
21033;DHT22;10675;47.976;7.824;2022-07-01T02:21:11;15.40;99.90
21033;DHT22;10675;47.976;7.824;2022-07-01T02:23:36;15.30;99.90
21033;DHT22;10675;47.976;7.824;2022-07-01T02:26:02;15.30;99.90
21033;DHT22;10675;47.976;7.824;2022-07-01T02:28:28;15.30;99.90
21033;DHT22;10675;47.976;7.824;2022-07-01T02:30:53;15.70;99.90
21033;DHT22;10675;47.976;7.824;2022-07-01T02:33:19;15.40;99.90
21033;DHT22;10675;47.976;7.824;2022-07-01T02:35:44;15.40;99.90
21033;DHT22;10675;47.976;7.824;2022-07-01T02:38:10;15.40;99.90
21033;DHT22;10675;47.976;7.824;2022-07-01T02:40:36;15.50;99.90
21033;DHT22;10675;47.976;7.824;2022-07-01T02:43:06;15.40;99.90
21033;DHT22;10675;47.976;7.824;2022-07-01T02:45:31;15.40;99.90
21033;DHT22;10675;47.976;7.824;2022-07-01T02:47:57;15.40;99.90
21033;DHT22;10675;47.976;7.824;2022-07-01T02:50:22;15.30;99.90
21033;DHT22;10675;47.976;7.824;2022-07-01T02:52:48;15.30;99.90
21033;DHT22;10675;47.976;7.824;2022-07-01T02:55:13;15.40;99.90
21033;DHT22;10675;47.976;7.824;2022-07-01T02:57:40;15.40;99.90
21033;DHT22;10675;47.976;7.824;2022-07-01T03:00:12;15.40;99.90
21033;DHT22;10675;47.976;7.824;2022-07-01T03:02:38;15.40;99.90
21033;DHT22;10675;47.976;7.824;2022-07-01T03:05:04;15.40;99.90
21033;DHT22;10675;47.976;7.824;2022-07-01T03:07:30;15.40;99.90
21033;DHT22;10675;47.976;7.824;2022-07-01T03:09:56;15.40;99.90
21033;DHT22;10675;47.976;7.824;2022-07-01T03:12:22;15.40;99.90
21033;DHT22;10675;47.976;7.824;2022-07-01T03:14:58;15.40;99.90
21033;DHT22;10675;47.976;7.824;2022-07-01T03:17:25;15.40;99.90
21033;DHT22;10675;47.976;7.824;2022-07-01T03:19:51;15.30;99.90
21033;DHT22;10675;47.976;7.824;2022-07-01T03:22:18;15.30;99.90
21033;DHT22;10675;47.976;7.824;2022-07-01T03:24:43;15.20;99.90
21033;DHT22;10675;47.976;7.824;2022-07-01T03:27:09;15.20;99.90
21033;DHT22;10675;47.976;7.824;2022-07-01T03:29:35;15.10;99.90
21033;DHT22;10675;47.976;7.824;2022-07-01T03:32:01;15.20;99.90
21033;DHT22;10675;47.976;7.824;2022-07-01T03:34:27;15.20;99.90
21033;DHT22;10675;47.976;7.824;2022-07-01T03:36:53;15.10;99.90
21033;DHT22;10675;47.976;7.824;2022-07-01T03:39:18;15.10;99.90
21033;DHT22;10675;47.976;7.824;2022-07-01T03:41:44;15.10;99.90
21033;DHT22;10675;47.976;7.824;2022-07-01T03:44:10;15.00;99.90
21033;DHT22;10675;47.976;7.824;2022-07-01T03:46:35;15.10;99.90
21033;DHT22;10675;47.976;7.824;2022-07-01T03:49:01;15.10;99.90
21033;DHT22;10675;47.976;7.824;2022-07-01T03:51:27;15.00;99.90
21033;DHT22;10675;47.976;7.824;2022-07-01T03:53:53;15.00;99.90
21033;DHT22;10675;47.976;7.824;2022-07-01T03:56:37;15.00;99.90
21033;DHT22;10675;47.976;7.824;2022-07-01T03:59:03;14.90;99.90
21033;DHT22;10675;47.976;7.824;2022-07-01T04:01:28;14.90;99.90
21033;DHT22;10675;47.976;7.824;2022-07-01T04:03:54;15.00;99.90
21033;DHT22;10675;47.976;7.824;2022-07-01T04:06:19;15.00;99.90
21033;DHT22;10675;47.976;7.824;2022-07-01T04:08:46;15.00;99.90
21033;DHT22;10675;47.976;7.824;2022-07-01T04:11:12;15.00;99.90
21033;DHT22;10675;47.976;7.824;2022-07-01T04:13:38;15.00;99.90
21033;DHT22;10675;47.976;7.824;2022-07-01T04:16:05;15.00;99.90
21033;DHT22;10675;47.976;7.824;2022-07-01T04:18:31;15.00;99.90
21033;DHT22;10675;47.976;7.824;2022-07-01T04:20:57;15.00;99.90
21033;DHT22;10675;47.976;7.824;2022-07-01T04:23:42;15.00;99.90
21033;DHT22;10675;47.976;7.824;2022-07-01T04:26:08;14.90;99.90
21033;DHT22;10675;47.976;7.824;2022-07-01T04:28:33;14.90;99.90
21033;DHT22;10675;47.976;7.824;2022-07-01T04:30:59;15.00;99.90
21033;DHT22;10675;47.976;7.824;2022-07-01T04:33:25;15.00;99.90
21033;DHT22;10675;47.976;7.824;2022-07-01T04:35:51;15.00;99.90
21033;DHT22;10675;47.976;7.824;2022-07-01T04:38:16;15.10;99.90
21033;DHT22;10675;47.976;7.824;2022-07-01T04:40:42;15.10;99.90
21033;DHT22;10675;47.976;7.824;2022-07-01T04:43:27;15.00;99.90
21033;DHT22;10675;47.976;7.824;2022-07-01T04:45:53;15.60;99.90
21033;DHT22;10675;47.976;7.824;2022-07-01T04:48:19;15.40;99.90
21033;DHT22;10675;47.976;7.824;2022-07-01T04:50:44;15.20;99.90
21033;DHT22;10675;47.976;7.824;2022-07-01T04:53:10;15.10;99.90
21033;DHT22;10675;47.976;7.824;2022-07-01T04:55:37;15.50;99.90
21033;DHT22;10675;47.976;7.824;2022-07-01T04:58:03;15.30;99.90
21033;DHT22;10675;47.976;7.824;2022-07-01T05:00:29;15.50;99.90
21033;DHT22;10675;47.976;7.824;2022-07-01T05:02:55;15.80;99.90
21033;DHT22;10675;47.976;7.824;2022-07-01T05:05:21;15.70;99.90
21033;DHT22;10675;47.976;7.824;2022-07-01T05:07:47;16.30;99.90
21033;DHT22;10675;47.976;7.824;2022-07-01T05:10:12;16.40;99.90
21033;DHT22;10675;47.976;7.824;2022-07-01T05:12:38;16.30;99.90
21033;DHT22;10675;47.976;7.824;2022-07-01T05:15:04;16.10;99.90
21033;DHT22;10675;47.976;7.824;2022-07-01T05:17:30;16.20;99.90
21033;DHT22;10675;47.976;7.824;2022-07-01T05:20:14;16.20;99.90
21033;DHT22;10675;47.976;7.824;2022-07-01T05:23:16;16.20;99.90
21033;DHT22;10675;47.976;7.824;2022-07-01T05:25:45;16.30;99.90
21033;DHT22;10675;47.976;7.824;2022-07-01T05:28:10;16.60;99.90
21033;DHT22;10675;47.976;7.824;2022-07-01T05:30:36;16.90;99.90
21033;DHT22;10675;47.976;7.824;2022-07-01T05:33:01;16.90;99.90
21033;DHT22;10675;47.976;7.824;2022-07-01T05:35:27;17.70;99.90
21033;DHT22;10675;47.976;7.824;2022-07-01T05:37:53;17.90;99.90
21033;DHT22;10675;47.976;7.824;2022-07-01T05:40:18;18.10;99.90
21033;DHT22;10675;47.976;7.824;2022-07-01T05:42:44;18.80;99.90
21033;DHT22;10675;47.976;7.824;2022-07-01T05:45:10;18.30;99.90
21033;DHT22;10675;47.976;7.824;2022-07-01T05:47:35;18.90;99.90
21033;DHT22;10675;47.976;7.824;2022-07-01T05:50:01;19.00;99.90
21033;DHT22;10675;47.976;7.824;2022-07-01T05:52:26;18.80;99.90
21033;DHT22;10675;47.976;7.824;2022-07-01T05:54:52;18.80;99.90
21033;DHT22;10675;47.976;7.824;2022-07-01T05:57:17;18.60;99.90
21033;DHT22;10675;47.976;7.824;2022-07-01T05:59:43;17.40;99.90
21033;DHT22;10675;47.976;7.824;2022-07-01T06:02:08;16.90;99.90
21033;DHT22;10675;47.976;7.824;2022-07-01T06:04:34;16.10;99.90
21033;DHT22;10675;47.976;7.824;2022-07-01T06:06:59;15.70;99.90
21033;DHT22;10675;47.976;7.824;2022-07-01T06:09:25;15.50;99.90
21033;DHT22;10675;47.976;7.824;2022-07-01T06:11:51;15.50;99.90
21033;DHT22;10675;47.976;7.824;2022-07-01T06:14:16;15.50;99.90
21033;DHT22;10675;47.976;7.824;2022-07-01T06:16:42;15.30;99.90
21033;DHT22;10675;47.976;7.824;2022-07-01T06:19:07;15.70;99.90
21033;DHT22;10675;47.976;7.824;2022-07-01T06:21:33;16.00;99.90
21033;DHT22;10675;47.976;7.824;2022-07-01T06:23:58;17.10;99.90
21033;DHT22;10675;47.976;7.824;2022-07-01T06:26:24;17.00;99.90
21033;DHT22;10675;47.976;7.824;2022-07-01T06:28:50;16.40;99.90
21033;DHT22;10675;47.976;7.824;2022-07-01T06:31:16;17.40;99.90
21033;DHT22;10675;47.976;7.824;2022-07-01T06:33:42;16.90;99.90
21033;DHT22;10675;47.976;7.824;2022-07-01T06:36:07;16.20;99.90
21033;DHT22;10675;47.976;7.824;2022-07-01T06:38:33;15.90;99.90
21033;DHT22;10675;47.976;7.824;2022-07-01T06:40:58;16.40;99.90
21033;DHT22;10675;47.976;7.824;2022-07-01T06:43:42;17.60;99.90
21033;DHT22;10675;47.976;7.824;2022-07-01T06:46:09;17.40;99.90
21033;DHT22;10675;47.976;7.824;2022-07-01T06:48:35;17.20;99.90
21033;DHT22;10675;47.976;7.824;2022-07-01T06:51:02;16.40;99.90
21033;DHT22;10675;47.976;7.824;2022-07-01T06:53:27;16.70;99.90
21033;DHT22;10675;47.976;7.824;2022-07-01T06:55:53;17.90;99.90
21033;DHT22;10675;47.976;7.824;2022-07-01T06:58:19;17.40;99.90
21033;DHT22;10675;47.976;7.824;2022-07-01T07:00:44;17.50;99.90
21033;DHT22;10675;47.976;7.824;2022-07-01T07:03:10;18.10;99.90
21033;DHT22;10675;47.976;7.824;2022-07-01T07:05:35;17.20;99.90
21033;DHT22;10675;47.976;7.824;2022-07-01T07:08:01;16.90;99.90
21033;DHT22;10675;47.976;7.824;2022-07-01T07:10:27;17.30;99.90
21033;DHT22;10675;47.976;7.824;2022-07-01T07:12:52;16.90;99.90
21033;DHT22;10675;47.976;7.824;2022-07-01T07:15:18;17.50;99.90
21033;DHT22;10675;47.976;7.824;2022-07-01T07:17:44;17.50;99.90
21033;DHT22;10675;47.976;7.824;2022-07-01T07:20:10;17.20;99.90
21033;DHT22;10675;47.976;7.824;2022-07-01T07:22:36;16.50;99.90
21033;DHT22;10675;47.976;7.824;2022-07-01T07:25:01;17.30;99.90
21033;DHT22;10675;47.976;7.824;2022-07-01T07:27:27;16.80;99.90
21033;DHT22;10675;47.976;7.824;2022-07-01T07:29:53;16.50;99.90
21033;DHT22;10675;47.976;7.824;2022-07-01T07:32:19;17.20;99.90
21033;DHT22;10675;47.976;7.824;2022-07-01T07:34:44;16.70;99.90
21033;DHT22;10675;47.976;7.824;2022-07-01T07:37:10;16.90;99.90
21033;DHT22;10675;47.976;7.824;2022-07-01T07:39:36;17.00;99.90
21033;DHT22;10675;47.976;7.824;2022-07-01T07:42:02;17.70;99.90
21033;DHT22;10675;47.976;7.824;2022-07-01T07:44:28;17.30;99.90
21033;DHT22;10675;47.976;7.824;2022-07-01T07:46:54;17.40;99.90
21033;DHT22;10675;47.976;7.824;2022-07-01T07:49:19;17.30;99.90
21033;DHT22;10675;47.976;7.824;2022-07-01T07:51:45;17.60;99.90
21033;DHT22;10675;47.976;7.824;2022-07-01T07:54:11;17.50;99.90
21033;DHT22;10675;47.976;7.824;2022-07-01T07:56:36;17.40;99.90
21033;DHT22;10675;47.976;7.824;2022-07-01T07:59:02;16.80;99.90
21033;DHT22;10675;47.976;7.824;2022-07-01T08:01:27;16.30;99.90
21033;DHT22;10675;47.976;7.824;2022-07-01T08:03:53;16.30;99.90
21033;DHT22;10675;47.976;7.824;2022-07-01T08:06:19;16.00;99.90
21033;DHT22;10675;47.976;7.824;2022-07-01T08:08:44;15.90;99.90
21033;DHT22;10675;47.976;7.824;2022-07-01T08:11:10;15.80;99.90
21033;DHT22;10675;47.976;7.824;2022-07-01T08:13:36;15.80;99.90
21033;DHT22;10675;47.976;7.824;2022-07-01T08:16:02;15.90;99.90
21033;DHT22;10675;47.976;7.824;2022-07-01T08:18:28;15.90;99.90
21033;DHT22;10675;47.976;7.824;2022-07-01T08:20:53;15.90;99.90
21033;DHT22;10675;47.976;7.824;2022-07-01T08:23:20;16.00;99.90
21033;DHT22;10675;47.976;7.824;2022-07-01T08:25:46;16.10;99.90
21033;DHT22;10675;47.976;7.824;2022-07-01T08:28:12;16.10;99.90
21033;DHT22;10675;47.976;7.824;2022-07-01T08:30:38;16.20;99.90
21033;DHT22;10675;47.976;7.824;2022-07-01T08:33:04;16.40;99.90
21033;DHT22;10675;47.976;7.824;2022-07-01T08:35:30;16.50;99.90
21033;DHT22;10675;47.976;7.824;2022-07-01T08:37:56;16.50;99.90
21033;DHT22;10675;47.976;7.824;2022-07-01T08:40:31;16.30;99.90
21033;DHT22;10675;47.976;7.824;2022-07-01T08:43:03;16.40;99.90
21033;DHT22;10675;47.976;7.824;2022-07-01T08:45:33;16.30;99.90
21033;DHT22;10675;47.976;7.824;2022-07-01T08:48:00;16.50;99.90
21033;DHT22;10675;47.976;7.824;2022-07-01T08:50:30;16.50;99.90
21033;DHT22;10675;47.976;7.824;2022-07-01T08:52:57;16.60;99.90
21033;DHT22;10675;47.976;7.824;2022-07-01T08:55:23;16.90;99.90
21033;DHT22;10675;47.976;7.824;2022-07-01T08:57:49;16.70;99.90
21033;DHT22;10675;47.976;7.824;2022-07-01T09:00:15;16.80;99.90
21033;DHT22;10675;47.976;7.824;2022-07-01T09:05:22;16.80;99.90
21033;DHT22;10675;47.976;7.824;2022-07-01T09:07:49;16.80;99.90
21033;DHT22;10675;47.976;7.824;2022-07-01T09:10:19;16.70;99.90
21033;DHT22;10675;47.976;7.824;2022-07-01T09:12:47;16.60;99.90
21033;DHT22;10675;47.976;7.824;2022-07-01T09:17:55;16.80;99.90
21033;DHT22;10675;47.976;7.824;2022-07-01T09:20:30;16.80;99.90
21033;DHT22;10675;47.976;7.824;2022-07-01T09:23:15;17.10;99.90
21033;DHT22;10675;47.976;7.824;2022-07-01T09:25:43;17.40;99.90
21033;DHT22;10675;47.976;7.824;2022-07-01T09:28:25;17.50;99.90
21033;DHT22;10675;47.976;7.824;2022-07-01T09:30:53;17.40;99.90
21033;DHT22;10675;47.976;7.824;2022-07-01T09:33:23;17.30;99.90
21033;DHT22;10675;47.976;7.824;2022-07-01T09:35:50;17.40;99.90
21033;DHT22;10675;47.976;7.824;2022-07-01T09:38:18;17.60;99.90
21033;DHT22;10675;47.976;7.824;2022-07-01T09:40:45;17.60;99.90
21033;DHT22;10675;47.976;7.824;2022-07-01T09:43:20;17.70;99.90
21033;DHT22;10675;47.976;7.824;2022-07-01T09:46:06;18.00;99.90
21033;DHT22;10675;47.976;7.824;2022-07-01T09:50:58;17.90;99.90
21033;DHT22;10675;47.976;7.824;2022-07-01T09:53:25;17.80;99.90
21033;DHT22;10675;47.976;7.824;2022-07-01T09:55:51;17.60;99.90
21033;DHT22;10675;47.976;7.824;2022-07-01T09:58:17;18.00;99.90
21033;DHT22;10675;47.976;7.824;2022-07-01T10:00:43;18.30;99.90
21033;DHT22;10675;47.976;7.824;2022-07-01T10:03:09;18.80;99.90
21033;DHT22;10675;47.976;7.824;2022-07-01T10:05:47;19.10;99.90
21033;DHT22;10675;47.976;7.824;2022-07-01T10:08:25;19.50;99.90
21033;DHT22;10675;47.976;7.824;2022-07-01T10:11:32;19.20;99.90
21033;DHT22;10675;47.976;7.824;2022-07-01T10:14:02;19.00;99.90
21033;DHT22;10675;47.976;7.824;2022-07-01T10:16:29;18.60;99.90
21033;DHT22;10675;47.976;7.824;2022-07-01T10:18:55;18.40;99.90
21033;DHT22;10675;47.976;7.824;2022-07-01T10:21:29;18.20;99.90
21033;DHT22;10675;47.976;7.824;2022-07-01T10:26:36;18.30;99.90
21033;DHT22;10675;47.976;7.824;2022-07-01T10:29:02;18.30;99.90
21033;DHT22;10675;47.976;7.824;2022-07-01T10:31:37;18.20;99.90
21033;DHT22;10675;47.976;7.824;2022-07-01T10:34:04;18.20;99.90
21033;DHT22;10675;47.976;7.824;2022-07-01T10:36:32;18.50;99.90
21033;DHT22;10675;47.976;7.824;2022-07-01T10:41:41;19.60;99.90
21033;DHT22;10675;47.976;7.824;2022-07-01T10:44:10;20.00;99.90
21033;DHT22;10675;47.976;7.824;2022-07-01T10:52:13;20.30;99.90
21033;DHT22;10675;47.976;7.824;2022-07-01T11:02:20;21.10;99.90
21033;DHT22;10675;47.976;7.824;2022-07-01T11:04:47;21.20;99.90
21033;DHT22;10675;47.976;7.824;2022-07-01T11:07:14;21.50;99.90
21033;DHT22;10675;47.976;7.824;2022-07-01T11:09:39;21.10;99.90
21033;DHT22;10675;47.976;7.824;2022-07-01T11:12:06;21.00;99.90
21033;DHT22;10675;47.976;7.824;2022-07-01T11:14:37;20.90;99.90
21033;DHT22;10675;47.976;7.824;2022-07-01T11:17:04;20.50;99.90
21033;DHT22;10675;47.976;7.824;2022-07-01T11:19:29;20.40;99.90
21033;DHT22;10675;47.976;7.824;2022-07-01T11:21:56;20.60;99.90
21033;DHT22;10675;47.976;7.824;2022-07-01T11:24:22;20.80;99.90
21033;DHT22;10675;47.976;7.824;2022-07-01T11:26:49;20.90;99.90
21033;DHT22;10675;47.976;7.824;2022-07-01T11:29:23;21.10;99.90
21033;DHT22;10675;47.976;7.824;2022-07-01T11:31:49;21.10;99.90
21033;DHT22;10675;47.976;7.824;2022-07-01T11:34:16;21.20;99.90
21033;DHT22;10675;47.976;7.824;2022-07-01T11:36:44;20.80;99.20
21033;DHT22;10675;47.976;7.824;2022-07-01T11:39:29;20.70;99.60
21033;DHT22;10675;47.976;7.824;2022-07-01T11:42:01;21.10;99.90
21033;DHT22;10675;47.976;7.824;2022-07-01T11:44:30;21.10;97.10
21033;DHT22;10675;47.976;7.824;2022-07-01T11:46:56;21.20;96.90
21033;DHT22;10675;47.976;7.824;2022-07-01T11:49:21;21.40;96.10
21033;DHT22;10675;47.976;7.824;2022-07-01T11:52:18;21.20;94.20
21033;DHT22;10675;47.976;7.824;2022-07-01T11:54:46;20.80;95.10
21033;DHT22;10675;47.976;7.824;2022-07-01T11:57:15;20.70;95.20
21033;DHT22;10675;47.976;7.824;2022-07-01T11:59:43;20.40;97.50
21033;DHT22;10675;47.976;7.824;2022-07-01T12:02:10;20.20;98.10
21033;DHT22;10675;47.976;7.824;2022-07-01T12:04:37;20.10;97.20
21033;DHT22;10675;47.976;7.824;2022-07-01T12:07:03;20.00;98.50
21033;DHT22;10675;47.976;7.824;2022-07-01T12:09:29;20.00;99.40
21033;DHT22;10675;47.976;7.824;2022-07-01T12:11:55;20.20;99.90
21033;DHT22;10675;47.976;7.824;2022-07-01T12:14:26;21.00;99.60
21033;DHT22;10675;47.976;7.824;2022-07-01T12:16:53;21.60;97.30
21033;DHT22;10675;47.976;7.824;2022-07-01T12:19:19;21.50;99.00
21033;DHT22;10675;47.976;7.824;2022-07-01T12:21:53;22.10;95.60
21033;DHT22;10675;47.976;7.824;2022-07-01T12:24:20;21.90;95.40
21033;DHT22;10675;47.976;7.824;2022-07-01T12:29:28;22.10;93.20
21033;DHT22;10675;47.976;7.824;2022-07-01T12:32:04;21.80;94.30
21033;DHT22;10675;47.976;7.824;2022-07-01T12:37:11;20.90;91.90
21033;DHT22;10675;47.976;7.824;2022-07-01T12:39:51;21.00;92.00
21033;DHT22;10675;47.976;7.824;2022-07-01T12:44:54;21.10;93.90
21033;DHT22;10675;47.976;7.824;2022-07-01T12:47:21;21.40;94.40
21033;DHT22;10675;47.976;7.824;2022-07-01T12:49:49;21.30;93.60
21033;DHT22;10675;47.976;7.824;2022-07-01T12:52:28;21.10;94.10
21033;DHT22;10675;47.976;7.824;2022-07-01T12:54:56;20.80;93.10
21033;DHT22;10675;47.976;7.824;2022-07-01T12:57:30;21.60;96.50
21033;DHT22;10675;47.976;7.824;2022-07-01T12:59:56;22.10;94.70
21033;DHT22;10675;47.976;7.824;2022-07-01T13:02:22;22.00;92.20
21033;DHT22;10675;47.976;7.824;2022-07-01T13:04:49;21.50;92.90
21033;DHT22;10675;47.976;7.824;2022-07-01T13:07:14;21.50;92.00
21033;DHT22;10675;47.976;7.824;2022-07-01T13:09:41;21.20;92.90
21033;DHT22;10675;47.976;7.824;2022-07-01T13:12:07;21.40;92.60
21033;DHT22;10675;47.976;7.824;2022-07-01T13:14:32;21.60;92.70
21033;DHT22;10675;47.976;7.824;2022-07-01T13:16:58;21.40;93.10
21033;DHT22;10675;47.976;7.824;2022-07-01T13:19:24;21.20;92.30
21033;DHT22;10675;47.976;7.824;2022-07-01T13:21:49;21.50;94.00
21033;DHT22;10675;47.976;7.824;2022-07-01T13:24:15;21.80;91.80
21033;DHT22;10675;47.976;7.824;2022-07-01T13:26:40;22.60;91.60
21033;DHT22;10675;47.976;7.824;2022-07-01T13:29:06;23.50;87.70
21033;DHT22;10675;47.976;7.824;2022-07-01T13:31:32;24.30;85.60
21033;DHT22;10675;47.976;7.824;2022-07-01T13:33:58;25.10;83.10
21033;DHT22;10675;47.976;7.824;2022-07-01T13:36:23;25.30;77.70
21033;DHT22;10675;47.976;7.824;2022-07-01T13:38:49;26.00;74.40
21033;DHT22;10675;47.976;7.824;2022-07-01T13:41:17;25.60;70.40
21033;DHT22;10675;47.976;7.824;2022-07-01T13:43:43;25.00;74.90
21033;DHT22;10675;47.976;7.824;2022-07-01T13:46:09;25.40;72.70
21033;DHT22;10675;47.976;7.824;2022-07-01T13:48:34;24.50;70.70
21033;DHT22;10675;47.976;7.824;2022-07-01T13:51:00;24.20;72.10
21033;DHT22;10675;47.976;7.824;2022-07-01T13:53:25;24.40;71.60
21033;DHT22;10675;47.976;7.824;2022-07-01T13:55:51;24.90;68.00
21033;DHT22;10675;47.976;7.824;2022-07-01T13:58:16;24.60;71.50
21033;DHT22;10675;47.976;7.824;2022-07-01T14:00:43;24.10;69.40
21033;DHT22;10675;47.976;7.824;2022-07-01T14:03:08;23.40;70.80
21033;DHT22;10675;47.976;7.824;2022-07-01T14:05:36;22.80;75.90
21033;DHT22;10675;47.976;7.824;2022-07-01T14:08:02;22.90;78.40
21033;DHT22;10675;47.976;7.824;2022-07-01T14:10:29;24.00;76.50
21033;DHT22;10675;47.976;7.824;2022-07-01T14:12:55;24.80;71.90
21033;DHT22;10675;47.976;7.824;2022-07-01T14:15:20;25.10;68.00
21033;DHT22;10675;47.976;7.824;2022-07-01T14:17:46;25.10;67.50
21033;DHT22;10675;47.976;7.824;2022-07-01T14:20:12;25.00;68.20
21033;DHT22;10675;47.976;7.824;2022-07-01T14:22:38;24.90;68.50
21033;DHT22;10675;47.976;7.824;2022-07-01T14:25:04;24.40;63.20
21033;DHT22;10675;47.976;7.824;2022-07-01T14:27:30;24.00;65.10
21033;DHT22;10675;47.976;7.824;2022-07-01T14:29:55;23.80;63.70
21033;DHT22;10675;47.976;7.824;2022-07-01T14:32:21;23.60;65.90
21033;DHT22;10675;47.976;7.824;2022-07-01T14:34:52;23.40;65.80
21033;DHT22;10675;47.976;7.824;2022-07-01T14:37:18;23.50;66.50
21033;DHT22;10675;47.976;7.824;2022-07-01T14:39:43;23.20;63.80
21033;DHT22;10675;47.976;7.824;2022-07-01T14:42:09;23.10;66.80
21033;DHT22;10675;47.976;7.824;2022-07-01T14:44:35;23.10;67.20
21033;DHT22;10675;47.976;7.824;2022-07-01T14:47:00;23.10;67.80
21033;DHT22;10675;47.976;7.824;2022-07-01T14:49:26;22.90;69.30
21033;DHT22;10675;47.976;7.824;2022-07-01T14:51:51;23.00;69.50
21033;DHT22;10675;47.976;7.824;2022-07-01T14:54:17;23.00;68.60
21033;DHT22;10675;47.976;7.824;2022-07-01T14:56:43;23.00;68.90
21033;DHT22;10675;47.976;7.824;2022-07-01T14:59:09;23.30;69.20
21033;DHT22;10675;47.976;7.824;2022-07-01T15:01:34;23.30;70.50
21033;DHT22;10675;47.976;7.824;2022-07-01T15:04:00;23.30;68.30
21033;DHT22;10675;47.976;7.824;2022-07-01T15:06:26;23.40;67.90
21033;DHT22;10675;47.976;7.824;2022-07-01T15:08:52;23.40;63.50
21033;DHT22;10675;47.976;7.824;2022-07-01T15:11:17;23.50;62.30
21033;DHT22;10675;47.976;7.824;2022-07-01T15:13:43;23.50;64.40
21033;DHT22;10675;47.976;7.824;2022-07-01T15:16:09;23.80;64.50
21033;DHT22;10675;47.976;7.824;2022-07-01T15:18:34;23.70;65.60
21033;DHT22;10675;47.976;7.824;2022-07-01T15:21:03;23.80;62.30
21033;DHT22;10675;47.976;7.824;2022-07-01T15:23:29;23.80;60.60
21033;DHT22;10675;47.976;7.824;2022-07-01T15:25:55;23.50;60.80
21033;DHT22;10675;47.976;7.824;2022-07-01T15:28:21;23.60;64.30
21033;DHT22;10675;47.976;7.824;2022-07-01T15:30:46;23.80;62.60
21033;DHT22;10675;47.976;7.824;2022-07-01T15:33:13;23.50;61.60
21033;DHT22;10675;47.976;7.824;2022-07-01T15:35:39;23.20;64.60
21033;DHT22;10675;47.976;7.824;2022-07-01T15:38:04;23.00;66.60
21033;DHT22;10675;47.976;7.824;2022-07-01T15:40:31;22.70;66.40
21033;DHT22;10675;47.976;7.824;2022-07-01T15:42:56;22.70;67.20
21033;DHT22;10675;47.976;7.824;2022-07-01T15:45:23;22.50;66.90
21033;DHT22;10675;47.976;7.824;2022-07-01T15:47:49;22.60;68.50
21033;DHT22;10675;47.976;7.824;2022-07-01T15:50:36;22.60;66.90
21033;DHT22;10675;47.976;7.824;2022-07-01T15:53:02;22.60;66.50
21033;DHT22;10675;47.976;7.824;2022-07-01T15:55:28;23.00;68.50
21033;DHT22;10675;47.976;7.824;2022-07-01T15:57:54;22.90;66.90
21033;DHT22;10675;47.976;7.824;2022-07-01T16:00:20;22.70;65.10
21033;DHT22;10675;47.976;7.824;2022-07-01T16:02:46;22.80;67.00